Time;durP1;ratioP1;P1;durP2;ratioP2;P2;SDS_P1;SDS_P2;PMS_P1;PMS_P2;Temp;Humidity;BMP_temperature;BMP_pressure;BME280_temperature;BME280_humidity;BME280_pressure;Samples;Min_cycle;Max_cycle;Signal;HPM_P1;HPM_P2
2022/04/24 00:01:06;;;;;;;69.15;44.53;;;;;;;11.58;94.07;98781.22;4793631;29;20042;-77
2022/04/24 00:03:32;;;;;;;72.93;42.95;;;;;;;11.61;92.57;98783.31;4803752;29;20073;-77
2022/04/24 00:05:58;;;;;;;74.60;46.97;;;;;;;11.59;94.77;98791.22;4811487;29;20038;-77
2022/04/24 00:08:23;;;;;;;62.35;41.95;;;;;;;11.61;91.91;98783.31;4793518;29;20030;-78
2022/04/24 00:10:49;;;;;;;68.00;41.90;;;;;;;11.66;91.65;98785.88;4807312;29;20031;-77
2022/04/24 00:13:14;;;;;;;71.75;43.35;;;;;;;11.68;91.17;98791.91;4796672;29;20057;-78
2022/04/24 00:15:40;;;;;;;64.60;40.25;;;;;;;11.67;91.45;98787.50;4808334;29;20027;-77
2022/04/24 00:18:05;;;;;;;74.30;42.50;;;;;;;11.68;91.61;98797.47;4787769;29;20038;-77
2022/04/24 00:20:31;;;;;;;70.07;42.60;;;;;;;11.67;93.52;98795.84;4796658;29;20066;-78
2022/04/24 00:22:56;;;;;;;68.53;42.15;;;;;;;11.66;92.91;98797.00;4811514;29;20082;-77
2022/04/24 00:25:22;;;;;;;64.35;40.85;;;;;;;11.69;91.88;98796.31;4781344;29;20034;-78
2022/04/24 00:27:47;;;;;;;70.18;43.95;;;;;;;11.67;92.93;98804.19;4781586;29;20443;-78
2022/04/24 00:30:13;;;;;;;79.13;46.33;;;;;;;11.64;93.68;98793.75;4796064;29;20487;-78
2022/04/24 00:32:38;;;;;;;78.65;47.13;;;;;;;11.61;94.44;98800.00;4773003;29;20038;-77
2022/04/24 00:35:04;;;;;;;72.38;46.38;;;;;;;11.60;95.09;98799.19;4796162;29;20058;-78
2022/04/24 00:37:30;;;;;;;78.28;44.17;;;;;;;11.58;94.00;98792.34;4796106;29;20026;-77
2022/04/24 00:39:56;;;;;;;68.32;40.85;;;;;;;11.64;92.42;98802.09;4810813;29;20663;-78
2022/04/24 00:42:21;;;;;;;65.40;41.13;;;;;;;11.65;92.11;98800.94;4795947;29;20073;-77
2022/04/24 00:44:47;;;;;;;68.10;41.38;;;;;;;11.66;91.68;98797.00;4811012;29;20038;-77
2022/04/24 00:47:17;;;;;;;70.78;41.97;;;;;;;11.66;92.57;98796.19;4796329;29;20049;-77
2022/04/24 00:49:43;;;;;;;80.22;43.83;;;;;;;11.66;93.35;98788.66;4796280;29;20034;-78
2022/04/24 00:52:09;;;;;;;83.20;47.63;;;;;;;11.61;95.23;98797.22;4796108;29;20116;-78
2022/04/24 00:54:34;;;;;;;73.90;43.95;;;;;;;11.63;94.08;98800.47;4795831;29;20543;-77
2022/04/24 00:57:00;;;;;;;72.07;41.60;;;;;;;11.65;92.71;98806.50;4796020;29;20060;-77
2022/04/24 00:59:25;;;;;;;66.60;42.58;;;;;;;11.61;93.46;98805.56;4777904;29;20035;-78
2022/04/24 01:01:51;;;;;;;64.82;40.53;;;;;;;11.63;92.70;98817.16;4794199;29;20042;-78
2022/04/24 01:04:17;;;;;;;68.18;42.58;;;;;;;11.59;92.91;98821.78;4795453;29;20031;-78
2022/04/24 01:06:43;;;;;;;62.95;39.65;;;;;;;11.64;92.40;98821.56;4792400;29;20545;-78
2022/04/24 01:09:15;;;;;;;66.85;41.55;;;;;;;11.63;91.64;98822.72;4781471;29;20038;-78
2022/04/24 01:11:41;;;;;;;73.88;42.90;;;;;;;11.60;93.11;98828.97;4810824;29;20038;-78
2022/04/24 01:14:07;;;;;;;64.53;39.97;;;;;;;11.62;92.25;98832.22;4827281;29;20042;-77
2022/04/24 01:16:33;;;;;;;61.40;38.35;;;;;;;11.66;90.92;98833.16;4801012;29;20039;-78
2022/04/24 01:18:59;;;;;;;63.45;37.78;;;;;;;11.63;90.27;98833.84;4793271;29;20095;-78
2022/04/24 01:21:24;;;;;;;63.88;38.00;;;;;;;11.66;90.39;98835.13;4810735;29;20030;-78
2022/04/24 01:23:49;;;;;;;64.75;39.70;;;;;;;11.64;91.11;98835.44;4810504;29;20038;-78
2022/04/24 01:26:15;;;;;;;67.35;39.85;;;;;;;11.64;91.21;98841.00;4795502;29;20037;-78
2022/04/24 01:28:40;;;;;;;64.60;38.85;;;;;;;11.65;90.84;98839.06;4810601;29;20034;-78
2022/04/24 01:31:06;;;;;;;79.53;44.53;;;;;;;11.62;92.07;98838.59;4778128;29;20035;-78
2022/04/24 01:33:31;;;;;;;68.90;41.05;;;;;;;11.62;92.41;98835.81;4792830;29;20457;-78
2022/04/24 01:35:57;;;;;;;65.53;39.55;;;;;;;11.60;91.63;98837.31;4796195;29;20034;-80
2022/04/24 01:38:22;;;;;;;74.00;42.58;;;;;;;11.58;93.35;98843.19;4795547;29;20034;-78
2022/04/24 01:40:48;;;;;;;69.70;41.72;;;;;;;11.58;93.21;98843.19;4810294;29;20042;-78
2022/04/24 01:43:15;;;;;;;67.53;40.30;;;;;;;11.59;92.35;98846.81;4795346;29;20033;-78
2022/04/24 01:45:40;;;;;;;69.38;42.13;;;;;;;11.58;92.24;98845.16;4810672;29;20504;-78
2022/04/24 01:48:06;;;;;;;69.22;39.65;;;;;;;11.58;91.92;98850.72;4810492;29;20111;-78
2022/04/24 01:50:31;;;;;;;69.35;41.67;;;;;;;11.60;92.52;98851.22;4795388;29;20038;-78
2022/04/24 01:52:57;;;;;;;80.80;45.00;;;;;;;11.55;93.24;98848.63;4795321;29;20047;-78
2022/04/24 01:55:22;;;;;;;66.20;40.70;;;;;;;11.55;92.25;98843.88;4780064;29;20053;-78
2022/04/24 01:57:48;;;;;;;67.25;39.88;;;;;;;11.45;94.49;98857.38;4810398;29;20042;-78
2022/04/24 02:00:14;;;;;;;70.68;40.60;;;;;;;11.49;93.08;98855.56;4795562;29;20034;-78
2022/04/24 02:02:39;;;;;;;68.18;41.13;;;;;;;11.52;93.24;98864.03;4777812;29;20037;-77
2022/04/24 02:05:05;;;;;;;69.85;41.55;;;;;;;11.49;93.05;98858.34;4803753;29;20096;-78
2022/04/24 02:07:31;;;;;;;71.40;44.13;;;;;;;11.49;93.78;98869.47;4826694;29;20044;-78
2022/04/24 02:09:56;;;;;;;62.22;39.03;;;;;;;11.49;92.06;98867.50;4794099;29;20046;-78
2022/04/24 02:12:21;;;;;;;81.97;45.03;;;;;;;11.48;94.22;98867.81;4795282;29;20484;-78
2022/04/24 02:14:47;;;;;;;66.38;38.95;;;;;;;11.44;92.82;98859.34;4810381;29;20038;-78
2022/04/24 02:17:12;;;;;;;69.47;39.47;;;;;;;11.48;92.58;98867.81;4782193;29;20038;-78
2022/04/24 02:19:38;;;;;;;74.35;42.28;;;;;;;11.49;93.30;98872.25;4768897;29;20034;-78
2022/04/24 02:22:04;;;;;;;70.75;42.65;;;;;;;11.47;92.92;98872.56;4783600;29;20483;-78
2022/04/24 02:24:30;;;;;;;66.93;40.20;;;;;;;11.47;92.07;98871.75;4783523;29;20064;-78
2022/04/24 02:26:55;;;;;;;70.50;39.70;;;;;;;11.49;91.59;98878.59;4798427;29;20038;-78
2022/04/24 02:29:21;;;;;;;67.32;40.42;;;;;;;11.50;91.62;98879.41;4829544;29;20038;-78
2022/04/24 02:31:46;;;;;;;68.95;38.20;;;;;;;11.55;91.28;98882.00;4789593;29;20095;-78
2022/04/24 02:34:12;;;;;;;74.65;40.10;;;;;;;11.52;92.02;98883.47;4813101;29;20107;-78
2022/04/24 02:36:38;;;;;;;63.85;36.47;;;;;;;11.52;91.31;98891.03;4783388;29;20042;-78
2022/04/24 02:39:03;;;;;;;62.10;38.88;;;;;;;11.51;91.18;98893.00;4798319;29;20034;-78
2022/04/24 02:41:29;;;;;;;71.82;41.78;;;;;;;11.48;93.20;98899.22;4783023;29;20034;-78
2022/04/24 02:43:55;;;;;;;72.60;42.33;;;;;;;11.44;93.97;98887.16;4813320;29;20042;-78
2022/04/24 02:46:20;;;;;;;62.03;37.30;;;;;;;11.44;92.67;98895.47;4813108;29;20086;-78
2022/04/24 02:48:46;;;;;;;62.05;38.33;;;;;;;11.49;91.36;98900.03;4795128;29;20038;-78
2022/04/24 02:51:11;;;;;;;64.22;38.63;;;;;;;11.49;91.36;98900.03;4794776;29;20034;-79
2022/04/24 02:53:37;;;;;;;62.83;37.47;;;;;;;11.48;91.10;98904.78;4782952;29;20050;-78
2022/04/24 02:56:02;;;;;;;66.53;37.90;;;;;;;11.48;91.03;98904.78;4782492;29;20058;-78
2022/04/24 02:58:28;;;;;;;64.72;38.20;;;;;;;11.51;91.05;98906.09;4813056;29;20044;-78
2022/04/24 03:00:55;;;;;;;66.28;39.30;;;;;;;11.50;91.22;98902.47;4797693;29;20540;-78
2022/04/24 03:03:20;;;;;;;84.22;44.30;;;;;;;11.48;92.70;98909.50;4808519;29;20046;-78
2022/04/24 03:05:49;;;;;;;68.13;38.63;;;;;;;11.48;92.23;98915.91;4799476;29;20034;-78
2022/04/24 03:08:18;;;;;;;71.85;40.00;;;;;;;11.50;91.79;98912.78;4797933;29;20054;-78
2022/04/24 03:10:44;;;;;;;69.40;40.70;;;;;;;11.50;92.57;98912.78;4782553;29;20038;-78
2022/04/24 03:13:10;;;;;;;73.57;41.72;;;;;;;11.50;91.70;98918.34;4782771;29;20444;-78
2022/04/24 03:15:37;;;;;;;74.32;40.60;;;;;;;11.51;92.27;98914.41;4796833;29;20050;-78
2022/04/24 03:18:04;;;;;;;74.25;40.33;;;;;;;11.50;92.69;98924.69;4803535;29;20057;-78
2022/04/24 03:20:29;;;;;;;77.25;42.78;;;;;;;11.47;94.39;98927.34;4797830;29;20045;-78
2022/04/24 03:22:55;;;;;;;66.85;42.17;;;;;;;11.45;92.92;98927.72;4782664;29;20117;-78
2022/04/24 03:25:20;;;;;;;67.93;39.58;;;;;;;11.48;92.76;98926.19;4811878;29;20042;-78
2022/04/24 03:27:46;;;;;;;65.70;38.20;;;;;;;11.47;92.17;98922.59;4782025;29;20035;-78
2022/04/24 03:30:12;;;;;;;67.57;40.95;;;;;;;11.49;92.23;98933.41;4797123;29;20510;-78
2022/04/24 03:32:38;;;;;;;83.25;44.28;;;;;;;11.42;94.15;98933.91;4773136;29;20054;-78
2022/04/24 03:35:05;;;;;;;65.68;41.30;;;;;;;11.41;93.88;98933.13;4794086;29;20058;-78
2022/04/24 03:37:31;;;;;;;64.60;39.35;;;;;;;11.43;93.30;98934.75;4782707;29;20068;-77
2022/04/24 03:39:57;;;;;;;67.80;40.85;;;;;;;11.41;93.97;98930.34;4797017;29;20030;-78
2022/04/24 03:42:22;;;;;;;71.30;39.95;;;;;;;11.41;93.15;98935.88;4812220;29;20035;-78
2022/04/24 03:44:48;;;;;;;76.20;41.88;;;;;;;11.40;94.52;98933.47;4797048;29;20038;-78
2022/04/24 03:47:14;;;;;;;69.70;41.03;;;;;;;11.38;93.94;98942.13;4812193;29;20038;-77
2022/04/24 03:49:40;;;;;;;66.72;40.45;;;;;;;11.40;93.70;98948.19;4811976;29;20030;-78
2022/04/24 03:52:06;;;;;;;78.22;44.53;;;;;;;11.36;94.50;98940.84;4779258;29;20072;-78
2022/04/24 03:54:32;;;;;;;73.50;41.03;;;;;;;11.40;92.92;98947.38;4811712;29;20050;-78
2022/04/24 03:56:57;;;;;;;72.15;39.75;;;;;;;11.39;92.81;98949.34;4796856;29;20042;-78
2022/04/24 03:59:23;;;;;;;64.97;38.72;;;;;;;11.39;92.87;98960.47;4778879;29;20034;-78
2022/04/24 04:01:48;;;;;;;69.82;40.00;;;;;;;11.39;93.22;98954.91;4788269;29;20488;-78
2022/04/24 04:04:14;;;;;;;67.43;38.63;;;;;;;11.39;92.09;98951.28;4827897;29;20091;-78
2022/04/24 04:06:39;;;;;;;75.45;41.10;;;;;;;11.37;93.06;98962.75;4828234;29;20031;-78
2022/04/24 04:09:05;;;;;;;69.95;38.80;;;;;;;11.35;93.08;98962.25;4826213;29;20042;-78
2022/04/24 04:11:30;;;;;;;71.47;42.08;;;;;;;11.34;94.54;98960.66;4796453;29;20026;-78
2022/04/24 04:13:56;;;;;;;74.78;41.95;;;;;;;11.26;96.29;98967.06;4796867;29;20064;-78
2022/04/24 04:16:22;;;;;;;66.63;39.70;;;;;;;11.27;94.36;98965.91;4793530;29;20465;-78
2022/04/24 04:18:48;;;;;;;66.13;37.78;;;;;;;11.30;93.40;98964.44;4793119;29;20058;-78
2022/04/24 04:21:14;;;;;;;72.03;39.20;;;;;;;11.27;94.09;98965.91;4811662;29;20129;-78
2022/04/24 04:23:39;;;;;;;67.53;37.95;;;;;;;11.30;93.10;98968.00;4781625;29;20072;-78
2022/04/24 04:26:05;;;;;;;66.75;39.35;;;;;;;11.29;93.33;98983.06;4827769;29;20035;-78
2022/04/24 04:28:30;;;;;;;66.38;37.78;;;;;;;11.31;92.62;98982.72;4796301;29;20042;-78
2022/04/24 04:30:56;;;;;;;65.05;37.63;;;;;;;11.31;92.86;98988.28;4791757;29;20551;-78
2022/04/24 04:33:21;;;;;;;59.20;34.95;;;;;;;11.32;92.19;98992.69;4795999;29;20061;-78
2022/04/24 04:35:47;;;;;;;62.25;34.90;;;;;;;11.32;91.88;98987.16;4796261;29;20450;-78
2022/04/24 04:38:14;;;;;;;62.17;36.40;;;;;;;11.33;92.29;98997.91;4781224;29;20034;-78
2022/04/24 04:40:39;;;;;;;67.72;39.65;;;;;;;11.33;93.55;98997.09;4810480;29;20041;-78
2022/04/24 04:43:05;;;;;;;58.72;36.28;;;;;;;11.32;92.76;98995.47;4781173;29;20026;-78
2022/04/24 04:45:30;;;;;;;67.53;40.20;;;;;;;11.32;92.99;98999.06;4796134;29;20042;-78
2022/04/24 04:47:56;;;;;;;60.50;36.95;;;;;;;11.33;92.99;98999.88;4795947;29;20055;-77
2022/04/24 04:50:21;;;;;;;61.35;37.63;;;;;;;11.34;93.64;99007.91;4795963;29;20041;-78
2022/04/24 04:52:47;;;;;;;60.03;36.38;;;;;;;11.30;93.05;99006.91;4827485;29;20036;-78
2022/04/24 04:55:12;;;;;;;63.58;37.78;;;;;;;11.32;92.85;99009.38;4810880;29;20039;-78
2022/04/24 04:57:38;;;;;;;67.38;38.10;;;;;;;11.32;92.67;99015.75;4796062;29;20102;-78
2022/04/24 05:00:05;;;;;;;62.80;37.22;;;;;;;11.32;92.34;99017.72;4811119;29;20038;-78
2022/04/24 05:02:31;;;;;;;67.75;38.15;;;;;;;11.30;92.74;99023.59;4796226;29;20034;-78
2022/04/24 05:04:59;;;;;;;63.55;36.95;;;;;;;11.29;92.37;99033.09;4827570;29;20045;-78
2022/04/24 05:07:25;;;;;;;59.67;36.92;;;;;;;11.31;92.30;99030.81;4796027;29;20594;-78
2022/04/24 05:09:50;;;;;;;54.85;34.67;;;;;;;11.32;91.88;99029.66;4795654;29;20034;-78
2022/04/24 05:12:16;;;;;;;53.65;33.72;;;;;;;11.31;91.40;99044.69;4795719;29;20031;-78
2022/04/24 05:14:41;;;;;;;53.45;33.65;;;;;;;11.37;92.14;99037.78;4810759;29;20042;-78
2022/04/24 05:17:07;;;;;;;53.53;34.20;;;;;;;11.34;91.35;99048.78;4780980;29;20053;-78
2022/04/24 05:19:32;;;;;;;56.70;32.90;;;;;;;11.34;91.66;99038.47;4795496;29;20026;-78
2022/04/24 05:21:59;;;;;;;60.05;34.85;;;;;;;11.31;91.92;99046.63;4810712;29;20037;-78
2022/04/24 05:24:24;;;;;;;60.60;34.55;;;;;;;11.26;92.30;99039.31;4795384;29;20396;-78
2022/04/24 05:26:50;;;;;;;59.78;33.65;;;;;;;11.32;92.29;99053.84;4765930;29;20045;-78
2022/04/24 05:29:15;;;;;;;59.55;34.95;;;;;;;11.29;92.99;99052.56;4810568;29;20030;-78
2022/04/24 05:31:41;;;;;;;60.45;37.30;;;;;;;11.27;93.95;99057.63;4786363;29;20096;-78
2022/04/24 05:34:07;;;;;;;64.18;37.60;;;;;;;11.26;95.11;99063.53;4795479;29;20107;-79
2022/04/24 05:36:32;;;;;;;74.80;41.58;;;;;;;11.26;96.59;99069.09;4780572;29;20515;-78
2022/04/24 05:38:58;;;;;;;68.95;41.00;;;;;;;11.25;96.52;99068.25;4782716;29;20035;-78
2022/04/24 05:41:23;;;;;;;69.78;40.80;;;;;;;11.28;96.10;99070.38;4810335;29;20034;-78
2022/04/24 05:43:48;;;;;;;74.15;43.63;;;;;;;11.30;98.17;99070.03;4826975;29;20037;-78
2022/04/24 05:46:14;;;;;;;61.88;37.33;;;;;;;11.31;95.49;99071.66;4810376;29;20453;-78
2022/04/24 05:48:40;;;;;;;71.40;41.25;;;;;;;11.33;96.53;99070.19;4795782;29;20034;-78
2022/04/24 05:51:05;;;;;;;63.70;35.65;;;;;;;11.38;93.89;99071.97;4796261;29;20045;-78
2022/04/24 05:53:31;;;;;;;56.25;35.17;;;;;;;11.40;94.21;99076.03;4782851;29;20038;-78
2022/04/24 05:55:57;;;;;;;58.03;35.80;;;;;;;11.47;94.21;99072.72;4798936;29;20050;-78
2022/04/24 05:58:22;;;;;;;73.13;41.28;;;;;;;11.51;96.90;99072.88;4814011;29;20127;-78
2022/04/24 06:00:48;;;;;;;58.85;36.20;;;;;;;11.54;95.05;99080.56;4769030;29;20126;-78
2022/04/24 06:03:13;;;;;;;65.65;38.22;;;;;;;11.58;96.21;99082.31;4783936;29;20034;-78
2022/04/24 06:05:39;;;;;;;62.63;38.00;;;;;;;11.64;95.87;99080.16;4783707;29;20026;-78
2022/04/24 06:08:04;;;;;;;68.97;38.58;;;;;;;11.70;95.30;99087.19;4829982;29;20396;-78
2022/04/24 06:10:30;;;;;;;67.90;39.05;;;;;;;11.76;96.85;99094.16;4827687;29;20408;-79
2022/04/24 06:12:56;;;;;;;59.75;36.13;;;;;;;11.81;96.13;99088.41;4783788;29;20507;-78
2022/04/24 06:15:24;;;;;;;69.90;40.65;;;;;;;11.87;98.27;99091.84;4797675;29;20046;-78
2022/04/24 06:17:54;;;;;;;59.60;35.67;;;;;;;11.94;95.53;99082.94;4803006;29;20037;-78
2022/04/24 06:20:20;;;;;;;60.45;39.55;;;;;;;12.01;96.61;99099.94;4798579;29;20038;-78
2022/04/24 06:22:47;;;;;;;67.03;39.05;;;;;;;12.06;98.14;99085.81;4791364;29;20048;-78
2022/04/24 06:25:17;;;;;;;69.13;41.33;;;;;;;12.14;97.89;99098.03;4801964;29;20732;-79
2022/04/24 06:27:43;;;;;;;56.40;33.10;;;;;;;12.18;94.17;99094.25;4798573;29;20444;-79
2022/04/24 06:30:10;;;;;;;54.88;33.67;;;;;;;12.27;92.88;99096.94;4798724;29;20034;-78
2022/04/24 06:32:39;;;;;;;54.90;34.03;;;;;;;12.35;92.55;99098.84;4789355;29;20034;-78
2022/04/24 06:35:06;;;;;;;52.60;32.92;;;;;;;12.45;92.04;99098.44;4782846;29;20078;-79
2022/04/24 06:37:32;;;;;;;54.47;31.67;;;;;;;12.52;91.54;99098.69;4783855;29;20049;-78
2022/04/24 06:39:57;;;;;;;50.13;30.85;;;;;;;12.61;91.33;99100.59;4798065;29;20043;-78
2022/04/24 06:42:23;;;;;;;51.53;31.90;;;;;;;12.68;91.05;99098.88;4780343;29;20088;-78
2022/04/24 06:44:48;;;;;;;57.13;34.47;;;;;;;12.75;92.07;99118.63;4803991;29;20050;-78
2022/04/24 06:47:14;;;;;;;52.00;33.28;;;;;;;12.82;91.92;99112.53;4806721;29;20034;-78
2022/04/24 06:49:39;;;;;;;55.42;32.78;;;;;;;12.90;91.42;99113.59;4798043;29;20034;-78
2022/04/24 06:52:05;;;;;;;51.17;32.22;;;;;;;12.96;90.87;99124.16;4798215;29;20035;-78
2022/04/24 06:54:30;;;;;;;61.28;36.75;;;;;;;13.02;93.17;99129.53;4783004;29;20056;-79
2022/04/24 06:57:01;;;;;;;52.38;33.10;;;;;;;13.08;91.22;99130.94;4813030;29;20043;-78
2022/04/24 06:59:27;;;;;;;49.97;31.35;;;;;;;13.15;90.33;99136.78;4813673;29;20042;-78
2022/04/24 07:01:52;;;;;;;54.70;33.58;;;;;;;13.19;91.66;99138.50;4797767;29;20069;-78
2022/04/24 07:04:18;;;;;;;67.72;37.67;;;;;;;13.22;94.53;99141.78;4810514;29;20045;-78
2022/04/24 07:06:43;;;;;;;55.95;32.70;;;;;;;13.28;93.13;99151.56;4794538;29;20034;-78
2022/04/24 07:09:10;;;;;;;57.65;35.83;;;;;;;13.35;92.91;99151.81;4820423;29;20041;-78
2022/04/24 07:11:36;;;;;;;54.63;33.13;;;;;;;13.43;91.55;99155.66;4797714;29;20043;-78
2022/04/24 07:14:01;;;;;;;56.05;33.20;;;;;;;13.52;90.19;99162.78;4767142;29;20039;-78
2022/04/24 07:16:27;;;;;;;52.03;30.75;;;;;;;13.66;88.92;99164.41;4798636;29;20034;-78
2022/04/24 07:18:52;;;;;;;62.83;34.92;;;;;;;13.78;90.37;99164.41;4797669;29;20543;-78
2022/04/24 07:21:18;;;;;;;51.38;30.45;;;;;;;13.92;87.68;99167.66;4782440;29;20038;-78
2022/04/24 07:23:43;;;;;;;47.40;29.67;;;;;;;14.08;86.07;99174.19;4797453;29;20496;-78
2022/04/24 07:26:08;;;;;;;55.63;34.00;;;;;;;14.24;89.73;99174.28;4797577;29;20039;-78
2022/04/24 07:28:34;;;;;;;58.08;32.95;;;;;;;14.40;89.03;99173.56;4797399;29;20509;-78
2022/04/24 07:30:59;;;;;;;55.55;34.75;;;;;;;14.52;88.23;99174.38;4792649;29;20064;-78
2022/04/24 07:33:25;;;;;;;53.03;31.00;;;;;;;14.69;87.72;99184.47;4770222;29;20058;-79
2022/04/24 07:35:51;;;;;;;46.75;28.35;;;;;;;14.86;85.00;99180.56;4797010;29;20027;-78
2022/04/24 07:38:16;;;;;;;58.45;33.92;;;;;;;15.01;86.56;99192.16;4796965;29;20034;-78
2022/04/24 07:40:42;;;;;;;50.22;30.73;;;;;;;15.17;85.54;99184.63;4827055;29;20042;-79
2022/04/24 07:43:09;;;;;;;51.35;32.35;;;;;;;15.32;85.06;99192.25;4828422;29;20037;-79
2022/04/24 07:45:35;;;;;;;48.65;29.88;;;;;;;15.51;84.53;99193.53;4796900;29;20567;-78
2022/04/24 07:48:00;;;;;;;43.75;26.63;;;;;;;15.68;82.55;99192.38;4796848;29;20121;-78
2022/04/24 07:50:30;;;;;;;37.63;23.73;;;;;;;15.86;80.89;99197.28;4816437;29;20030;-78
2022/04/24 07:52:55;;;;;;;38.42;25.13;;;;;;;16.03;79.53;99201.69;4797240;29;20066;-78
2022/04/24 07:55:22;;;;;;;41.30;24.17;;;;;;;16.18;78.44;99194.44;4781543;29;20187;-78
2022/04/24 07:57:48;;;;;;;38.38;25.15;;;;;;;16.33;77.78;99200.41;4796524;29;20042;-78
2022/04/24 08:00:15;;;;;;;50.40;30.98;;;;;;;16.44;79.44;99190.25;4811972;29;20126;-78
2022/04/24 08:03:02;;;;;;;48.88;30.60;;;;;;;16.59;80.31;99197.78;4796458;29;20121;-78
2022/04/24 08:05:37;;;;;;;42.88;26.50;;;;;;;16.68;77.48;99198.41;4795411;29;20515;-75
2022/04/24 08:08:05;;;;;;;46.47;26.35;;;;;;;16.81;76.82;99203.91;4813607;29;20039;-75
2022/04/24 08:10:32;;;;;;;49.88;28.55;;;;;;;16.92;77.43;99202.16;4811501;29;20030;-75
2022/04/24 08:12:57;;;;;;;46.97;29.13;;;;;;;16.99;78.62;99205.09;4827831;29;20042;-75
2022/04/24 08:15:23;;;;;;;48.08;28.60;;;;;;;17.12;77.03;99217.78;4810373;29;20042;-75
2022/04/24 08:17:48;;;;;;;43.33;29.25;;;;;;;17.10;76.38;99220.13;4795843;29;20034;-75
2022/04/24 08:20:15;;;;;;;42.17;28.52;;;;;;;17.18;76.07;99219.09;4811420;29;20034;-75
2022/04/24 08:22:44;;;;;;;48.60;29.30;;;;;;;17.26;76.06;99222.06;4812774;29;20034;-75
2022/04/24 08:25:11;;;;;;;39.70;24.10;;;;;;;17.42;75.28;99220.78;4811088;29;20040;-75
2022/04/24 08:27:37;;;;;;;36.92;23.33;;;;;;;17.59;73.67;99224.31;4827964;29;20042;-75
2022/04/24 08:30:04;;;;;;;38.42;24.15;;;;;;;17.71;73.28;99224.13;4811563;29;20733;-75
2022/04/24 08:32:29;;;;;;;38.53;24.48;;;;;;;17.80;72.54;99224.75;4801594;29;20023;-75
2022/04/24 08:34:56;;;;;;;42.83;26.55;;;;;;;17.86;72.45;99230.88;4773730;29;20061;-75
2022/04/24 08:37:23;;;;;;;44.83;27.38;;;;;;;17.88;72.84;99236.09;4827766;29;20046;-75
2022/04/24 08:39:49;;;;;;;35.90;24.10;;;;;;;17.93;72.61;99242.22;4835005;29;20492;-75
2022/04/24 08:42:18;;;;;;;42.63;24.52;;;;;;;17.95;72.56;99242.66;4827529;29;20027;-76
2022/04/24 08:44:45;;;;;;;38.05;24.45;;;;;;;18.03;71.62;99249.22;4796750;29;20058;-77
2022/04/24 08:47:12;;;;;;;36.88;23.15;;;;;;;18.04;71.75;99260.06;4827337;29;20038;-77
2022/04/24 08:49:38;;;;;;;38.35;23.13;;;;;;;17.88;71.19;99256.56;4795741;29;20552;-77
2022/04/24 08:52:03;;;;;;;31.88;22.00;;;;;;;17.79;70.08;99254.00;4781029;29;20408;-77
2022/04/24 08:54:29;;;;;;;30.27;21.27;;;;;;;17.84;70.21;99261.31;4827368;29;20045;-77
2022/04/24 08:56:58;;;;;;;31.77;21.02;;;;;;;17.86;70.82;99258.94;4796127;29;20071;-76
2022/04/24 08:59:23;;;;;;;35.35;21.55;;;;;;;17.86;71.21;99265.38;4796608;29;20095;-74
2022/04/24 09:01:50;;;;;;;38.03;21.92;;;;;;;17.80;71.91;99257.59;4834438;29;20038;-74
2022/04/24 09:04:16;;;;;;;31.70;20.60;;;;;;;17.90;71.68;99259.00;4796067;29;20041;-73
2022/04/24 09:06:42;;;;;;;32.15;20.15;;;;;;;17.96;71.44;99263.94;4810965;29;20545;-73
2022/04/24 09:09:07;;;;;;;32.15;21.00;;;;;;;18.01;71.19;99272.03;4796965;29;20053;-74
2022/04/24 09:11:33;;;;;;;33.22;22.10;;;;;;;18.05;71.29;99275.75;4827199;29;20047;-73
2022/04/24 09:16:54;;;;;;;33.92;22.67;;;;;;;18.18;70.66;99283.97;4821638;29;20050;-73
2022/04/24 09:19:24;;;;;;;33.30;20.95;;;;;;;18.25;70.85;99281.31;4793853;29;20046;-73
2022/04/24 09:21:50;;;;;;;34.67;22.15;;;;;;;18.28;70.43;99288.97;4780946;29;20042;-74
2022/04/24 09:24:15;;;;;;;34.67;22.25;;;;;;;18.30;70.67;99280.97;4810369;29;20531;-74
2022/04/24 09:26:59;;;;;;;30.52;19.92;;;;;;;18.36;70.13;99292.69;4814533;29;20057;-73
2022/04/24 09:29:24;;;;;;;32.20;20.02;;;;;;;18.38;68.92;99296.75;4786324;29;20510;-74
2022/04/24 09:31:51;;;;;;;35.35;20.92;;;;;;;18.38;68.43;99305.19;4830017;29;20030;-74
2022/04/24 09:34:17;;;;;;;37.63;20.95;;;;;;;18.39;69.17;99309.63;4816495;29;20051;-73
2022/04/24 09:36:43;;;;;;;36.63;21.23;;;;;;;18.38;69.62;99308.00;4832903;29;20034;-73
2022/04/24 09:39:09;;;;;;;31.02;21.50;;;;;;;18.39;69.25;99309.63;4816512;29;20034;-73
2022/04/24 09:41:34;;;;;;;41.33;22.67;;;;;;;18.42;70.18;99308.88;4773839;29;20441;-74
2022/04/24 09:44:10;;;;;;;37.15;21.90;;;;;;;18.47;70.26;99311.38;4801535;29;20057;-73
2022/04/24 09:46:36;;;;;;;31.83;21.15;;;;;;;18.53;68.82;99314.69;4801414;29;20034;-73
2022/04/24 09:49:01;;;;;;;31.05;21.33;;;;;;;18.56;68.84;99313.94;4832584;29;20042;-73
2022/04/24 09:51:27;;;;;;;30.27;19.27;;;;;;;18.60;67.97;99313.97;4801481;29;20395;-73
2022/04/24 09:53:53;;;;;;;28.58;20.70;;;;;;;18.65;68.35;99313.66;4816132;29;20080;-72
2022/04/24 09:56:18;;;;;;;34.88;21.33;;;;;;;18.67;67.99;99319.72;4816417;29;20057;-73
2022/04/24 09:58:45;;;;;;;31.42;19.67;;;;;;;18.73;68.28;99318.22;4801381;29;20038;-71
2022/04/24 10:01:12;;;;;;;28.88;19.10;;;;;;;18.87;69.98;99315.66;4801327;29;20041;-71
2022/04/24 10:03:38;;;;;;;25.27;16.23;;;;;;;18.96;67.12;99324.63;4785391;29;20385;-71
2022/04/24 10:06:04;;;;;;;31.73;20.98;;;;;;;19.07;68.89;99318.34;4801184;29;20042;-72
2022/04/24 10:08:30;;;;;;;30.52;18.08;;;;;;;19.16;66.16;99322.47;4789423;29;20045;-70
2022/04/24 10:10:55;;;;;;;28.13;17.30;;;;;;;19.24;64.49;99329.03;4800990;29;20702;-70
2022/04/24 10:13:21;;;;;;;28.70;18.83;;;;;;;19.32;64.31;99333.56;4798674;29;20039;-71
2022/04/24 10:15:52;;;;;;;30.08;18.92;;;;;;;19.42;63.38;99332.91;4796233;29;20034;-71
2022/04/24 10:18:54;;;;;;;29.85;17.98;;;;;;;19.58;63.57;99334.69;4784527;29;20026;-71
2022/04/24 10:21:47;;;;;;;30.70;19.03;;;;;;;19.77;65.39;99326.09;4743204;30;20080;-71
2022/04/24 10:24:13;;;;;;;27.95;17.52;;;;;;;19.92;62.53;99331.91;4770081;30;20051;-71
2022/04/24 10:26:39;;;;;;;22.55;15.27;;;;;;;20.16;63.19;99336.19;4776024;30;20043;-71
2022/04/24 10:29:08;;;;;;;20.25;14.40;;;;;;;20.42;63.04;99329.56;4761299;30;20047;-71
2022/04/24 10:31:44;;;;;;;21.10;13.63;;;;;;;20.58;61.00;99332.97;4760933;30;20043;-71
2022/04/24 10:34:11;;;;;;;20.55;14.40;;;;;;;20.75;60.93;99335.16;4743557;30;20086;-71
2022/04/24 10:36:36;;;;;;;20.63;13.13;;;;;;;21.00;59.93;99334.50;4775837;30;20105;-71
2022/04/24 10:39:13;;;;;;;25.17;14.68;;;;;;;21.20;61.09;99338.66;4742951;30;20048;-71
2022/04/24 10:41:38;;;;;;;16.50;11.45;;;;;;;21.52;60.44;99340.88;4772983;30;20052;-71
2022/04/24 10:44:08;;;;;;;18.75;13.43;;;;;;;21.64;57.41;99346.16;4743687;30;20039;-71
2022/04/24 10:46:41;;;;;;;19.92;14.15;;;;;;;21.69;55.70;99350.63;4725504;30;20168;-71
2022/04/24 10:49:10;;;;;;;19.48;13.73;;;;;;;21.63;55.00;99350.19;4758664;30;20560;-71
2022/04/24 10:51:37;;;;;;;18.15;12.90;;;;;;;21.66;54.14;99347.78;4747180;30;20039;-72
2022/04/24 10:54:08;;;;;;;16.15;12.05;;;;;;;21.67;54.61;99353.03;4740918;30;20093;-72
2022/04/24 10:56:35;;;;;;;18.98;11.98;;;;;;;21.75;54.33;99356.69;4798357;29;20034;-72
2022/04/24 10:59:11;;;;;;;15.25;9.50;;;;;;;21.73;53.63;99356.28;4813009;29;20117;-72
2022/04/24 11:01:37;;;;;;;14.63;11.10;;;;;;;21.68;53.69;99357.50;4797751;29;20121;-72
2022/04/24 11:04:06;;;;;;;12.30;9.93;;;;;;;21.75;53.72;99363.16;4782960;29;20554;-72
2022/04/24 11:06:32;;;;;;;16.83;10.77;;;;;;;21.80;55.44;99367.63;4783033;29;20697;-72
2022/04/24 11:09:11;;;;;;;16.58;12.13;;;;;;;21.97;53.60;99363.25;4782617;29;20065;-72
2022/04/24 11:11:59;;;;;;;17.17;11.00;;;;;;;22.08;53.91;99364.88;4787898;29;20125;-72
2022/04/24 11:14:25;;;;;;;14.98;10.13;;;;;;;22.15;52.86;99369.78;4806016;29;20086;-72
2022/04/24 11:16:58;;;;;;;12.10;10.02;;;;;;;22.01;52.32;99372.56;4783730;29;20405;-71